Time;durP1;ratioP1;P1;durP2;ratioP2;P2;SDS_P1;SDS_P2;PMS_P1;PMS_P2;Temp;Humidity;BMP_temperature;BMP_pressure;BME280_temperature;BME280_humidity;BME280_pressure;Samples;Min_cycle;Max_cycle;Signal;HPM_P1;HPM_P2
2022/02/03 00:00:18;;;;;;;43.53;31.77;;;;;;;;;;5050190;28;20536;-52
2022/02/03 00:02:57;;;;;;;34.35;23.92;;;;;;;;;;5047246;28;20030;-52
2022/02/03 00:05:42;;;;;;;51.90;37.25;;;;;;;;;;5051656;28;20445;-49
2022/02/03 00:08:16;;;;;;;46.28;33.85;;;;;;;;;;5046092;28;20029;-50
2022/02/03 00:27:01;;;;;;;49.65;39.95;;;;;;;;;;5047271;28;20033;-49
2022/02/03 00:29:47;;;;;;;71.47;44.22;;;;;;;;;;5046308;28;20477;-52
2022/02/03 00:32:42;;;;;;;54.42;39.08;;;;;;;;;;5052507;28;20055;-51
2022/02/03 00:35:24;;;;;;;49.95;32.88;;;;;;;;;;5047450;28;20567;-54
2022/02/03 00:48:36;;;;;;;28.48;17.38;;;;;;;;;;5049639;28;20023;-50
2022/02/03 00:51:02;;;;;;;22.90;18.45;;;;;;;;;;5049873;28;20505;-52
2022/02/03 00:53:27;;;;;;;29.60;23.92;;;;;;;;;;5047095;28;20029;-53
2022/02/03 00:55:54;;;;;;;33.35;26.10;;;;;;;;;;5049064;28;20013;-53
2022/02/03 00:58:22;;;;;;;37.40;27.40;;;;;;;;;;5051334;28;20017;-52
2022/02/03 01:00:50;;;;;;;35.08;29.25;;;;;;;;;;5049378;28;20017;-51
2022/02/03 01:03:16;;;;;;;31.65;25.58;;;;;;;;;;5055701;28;20056;-53
2022/02/03 01:05:44;;;;;;;29.67;25.73;;;;;;;;;;5057298;28;20021;-52
2022/02/03 01:08:21;;;;;;;29.98;25.10;;;;;;;;;;5056835;28;20036;-49
2022/02/03 01:10:53;;;;;;;26.63;21.88;;;;;;;;;;5052316;28;20065;-46
2022/02/03 01:13:49;;;;;;;24.25;20.75;;;;;;;;;;5050170;28;20025;-49
2022/02/03 01:43:25;;;;;;;14.68;13.15;;;;;;;;;;5035125;28;20063;-51
2022/02/03 01:45:57;;;;;;;15.15;13.15;;;;;;;;;;5050719;28;20017;-49
2022/02/03 01:48:38;;;;;;;16.55;14.07;;;;;;;;;;5052254;28;20021;-50
2022/02/03 01:53:48;;;;;;;16.52;13.73;;;;;;;;;;5052619;28;20103;-47
2022/02/03 01:56:14;;;;;;;13.50;11.98;;;;;;;;;;5054640;28;20111;-51
2022/02/03 01:58:46;;;;;;;14.95;10.93;;;;;;;;;;5054455;28;20046;-50
2022/02/03 02:01:25;;;;;;;11.80;9.90;;;;;;;;;;5051543;28;20033;-52
2022/02/03 02:03:50;;;;;;;11.35;10.18;;;;;;;;;;5052566;28;20315;-52
2022/02/03 02:06:34;;;;;;;13.85;9.68;;;;;;;;;;5052486;28;20504;-52
2022/02/03 02:09:12;;;;;;;9.38;6.78;;;;;;;;;;5053842;28;20021;-50
2022/02/03 02:11:47;;;;;;;15.50;9.55;;;;;;;;;;5051041;28;20086;-51
2022/02/03 02:38:57;;;;;;;18.88;11.43;;;;;;;;;;5051726;28;20032;-54
2022/02/03 02:44:21;;;;;;;14.25;10.95;;;;;;;;;;5038756;28;20744;-49
2022/02/03 02:46:47;;;;;;;14.50;10.75;;;;;;;;;;5053941;28;20103;-49
2022/02/03 02:49:33;;;;;;;21.83;10.18;;;;;;;;;;5047210;28;20454;-52
2022/02/03 02:52:07;;;;;;;11.52;8.90;;;;;;;;;;5052460;28;20029;-50
2022/02/03 02:55:05;;;;;;;11.43;9.90;;;;;;;;;;5050161;28;20063;-50
2022/02/03 02:57:55;;;;;;;13.43;9.30;;;;;;;;;;5049606;28;20034;-51
2022/02/03 03:38:22;;;;;;;12.23;8.48;;;;;;;;;;5051805;28;20043;-50
2022/02/03 03:40:50;;;;;;;10.13;6.57;;;;;;;;;;5049186;28;20104;-47
2022/02/03 03:43:21;;;;;;;7.78;5.75;;;;;;;;;;5049820;28;20039;-50
2022/02/03 03:45:46;;;;;;;;;;;;;;;;;;5050744;28;20048;-52
2022/02/03 03:48:16;;;;;;;7.00;6.30;;;;;;;;;;5050557;28;20009;-52
2022/02/03 03:50:46;;;;;;;12.75;11.45;;;;;;;;;;5047923;28;20765;-52
2022/02/03 03:53:22;;;;;;;8.00;6.90;;;;;;;;;;5048927;28;20032;-54
2022/02/03 03:55:57;;;;;;;8.73;6.68;;;;;;;;;;5051797;28;20025;-49
2022/02/03 04:33:11;;;;;;;7.30;3.38;;;;;;;;;;5046732;28;20056;-48
2022/02/03 04:38:59;;;;;;;9.95;3.47;;;;;;;;;;5050156;28;20039;-52
2022/02/03 04:55:51;;;;;;;16.45;8.45;;;;;;;;;;5052785;28;20040;-53
2022/02/03 05:04:51;;;;;;;11.90;3.47;;;;;;;;;;5048541;28;20036;-54
2022/02/03 05:33:22;;;;;;;2.50;1.52;;;;;;;;;;5051809;28;20039;-50
2022/02/03 05:44:44;;;;;;;6.32;4.82;;;;;;;;;;5049948;28;20086;-54
2022/02/03 06:21:33;;;;;;;6.32;3.80;;;;;;;;;;5049058;28;20032;-55
2022/02/03 06:29:21;;;;;;;5.25;3.70;;;;;;;;;;5030154;28;20037;-51
2022/02/03 06:31:47;;;;;;;8.13;5.93;;;;;;;;;;5044558;28;20535;-53
2022/02/03 06:34:13;;;;;;;15.13;8.55;;;;;;;;;;5051095;28;20381;-53
2022/02/03 06:36:42;;;;;;;34.33;20.80;;;;;;;;;;5051199;28;20025;-54
2022/02/03 06:39:14;;;;;;;69.85;37.40;;;;;;;;;;5049364;28;20013;-50
2022/02/03 06:41:39;;;;;;;75.68;40.35;;;;;;;;;;5050361;28;20482;-50
2022/02/03 06:44:05;;;;;;;108.00;60.90;;;;;;;;;;5044274;28;20025;-57
2022/02/03 06:46:32;;;;;;;103.78;65.30;;;;;;;;;;5046942;28;20094;-58
2022/02/03 06:49:09;;;;;;;95.57;68.00;;;;;;;;;;5052036;28;20017;-58
2022/02/03 06:51:38;;;;;;;91.65;54.92;;;;;;;;;;5053003;28;20078;-58
2022/02/03 06:54:13;;;;;;;70.25;40.50;;;;;;;;;;5050252;28;20017;-58
2022/02/03 06:56:47;;;;;;;71.95;40.60;;;;;;;;;;5056865;28;20016;-58
2022/02/03 06:59:15;;;;;;;49.25;28.45;;;;;;;;;;5052987;28;20074;-58
2022/02/03 07:01:43;;;;;;;17.17;12.05;;;;;;;;;;5051144;28;20129;-58
2022/02/03 07:04:23;;;;;;;19.15;13.15;;;;;;;;;;5051401;28;20029;-58
2022/02/03 07:06:48;;;;;;;18.45;15.32;;;;;;;;;;5052935;28;20107;-58
2022/02/03 07:09:13;;;;;;;26.73;14.93;;;;;;;;;;5049593;28;20134;-58
2022/02/03 07:11:40;;;;;;;20.88;13.70;;;;;;;;;;5050835;28;20025;-58
2022/02/03 07:14:07;;;;;;;16.55;13.93;;;;;;;;;;5049088;28;20101;-57
2022/02/03 07:16:43;;;;;;;32.20;16.80;;;;;;;;;;5045573;28;20017;-57
2022/02/03 07:19:09;;;;;;;16.35;12.60;;;;;;;;;;5049066;28;20016;-55
2022/02/03 07:21:34;;;;;;;13.75;6.70;;;;;;;;;;5049159;28;20032;-40
2022/02/03 07:23:59;;;;;;;20.50;9.18;;;;;;;;;;5048583;28;20041;-42
2022/02/03 07:26:25;;;;;;;19.80;7.30;;;;;;;;;;5049549;28;20024;-41
2022/02/03 07:28:50;;;;;;;24.10;8.15;;;;;;;;;;5048145;28;20139;-40
2022/02/03 07:31:15;;;;;;;20.98;13.60;;;;;;;;;;5048457;28;20124;-40
2022/02/03 07:33:41;;;;;;;15.73;11.48;;;;;;;;;;5043078;28;20024;-42
2022/02/03 07:36:08;;;;;;;17.70;11.98;;;;;;;;;;5045377;28;20109;-41
2022/02/03 07:38:34;;;;;;;13.70;10.70;;;;;;;;;;5053384;28;20021;-42
2022/02/03 07:40:59;;;;;;;16.95;10.10;;;;;;;;;;5051223;28;20013;-43
2022/02/03 07:43:25;;;;;;;27.90;17.63;;;;;;;;;;5047454;28;20025;-41
2022/02/03 07:45:50;;;;;;;54.85;36.25;;;;;;;;;;5048894;28;20109;-42
2022/02/03 07:48:19;;;;;;;27.58;19.08;;;;;;;;;;5052663;28;20119;-40
2022/02/03 07:50:44;;;;;;;103.43;86.50;;;;;;;;;;5051982;28;20028;-41
2022/02/03 07:53:10;;;;;;;97.57;74.20;;;;;;;;;;5048871;28;20050;-40
2022/02/03 07:55:35;;;;;;;35.45;25.15;;;;;;;;;;5047491;28;20486;-40
2022/02/03 07:58:02;;;;;;;33.65;22.10;;;;;;;;;;5051482;28;20447;-43
2022/02/03 08:00:27;;;;;;;21.98;18.73;;;;;;;;;;5050564;28;20017;-41
2022/02/03 08:02:53;;;;;;;30.83;19.40;;;;;;;;;;5046953;28;20443;-43
2022/02/03 08:05:20;;;;;;;39.47;17.00;;;;;;;;;;5049794;28;20678;-40
2022/02/03 08:08:12;;;;;;;41.22;26.92;;;;;;;;;;5049233;28;20041;-40
2022/02/03 08:10:53;;;;;;;26.83;18.88;;;;;;;;;;5043492;28;20481;-41
2022/02/03 08:13:30;;;;;;;13.85;12.38;;;;;;;;;;5051193;28;20063;-44
2022/02/03 08:16:12;;;;;;;31.55;20.25;;;;;;;;;;5052103;28;20032;-46
2022/02/03 08:18:40;;;;;;;42.95;20.80;;;;;;;;;;5052673;28;20039;-42
2022/02/03 08:21:08;;;;;;;36.05;21.58;;;;;;;;;;5047917;28;20110;-42
2022/02/03 08:26:07;;;;;;;35.40;21.33;;;;;;;;;;5054578;28;20037;-43
2022/02/03 08:31:10;;;;;;;47.92;23.98;;;;;;;;;;5051317;28;20086;-42
2022/02/03 08:33:35;;;;;;;;;;;;;;;;;;5052245;28;20074;-43
2022/02/03 08:36:04;;;;;;;127.15;35.35;;;;;;;;;;5048351;28;19921;-42
2022/02/03 08:38:45;;;;;;;35.13;19.13;;;;;;;;;;5051917;28;20021;-44
2022/02/03 08:41:10;;;;;;;29.38;19.15;;;;;;;;;;5046418;28;20048;-44
2022/02/03 08:43:36;;;;;;;35.70;20.42;;;;;;;;;;5050853;28;20481;-46
2022/02/03 08:46:04;;;;;;;22.25;19.10;;;;;;;;;;5044365;28;20028;-46
2022/02/03 08:48:30;;;;;;;29.88;21.60;;;;;;;;;;5046935;28;20096;-47
2022/02/03 08:50:56;;;;;;;31.55;21.00;;;;;;;;;;5049666;28;20033;-43
2022/02/03 08:53:38;;;;;;;41.88;26.00;;;;;;;;;;5046851;28;20025;-44
2022/02/03 09:53:04;;;;;;;38.72;33.47;;;;;;;;;;5046822;28;20401;-44
2022/02/03 09:58:15;;;;;;;46.70;37.05;;;;;;;;;;5051976;28;20023;-48
2022/02/03 10:01:03;;;;;;;42.83;37.45;;;;;;;;;;5050861;28;20104;-45
2022/02/03 10:03:38;;;;;;;36.70;32.75;;;;;;;;;;5050594;28;20150;-45
2022/02/03 10:06:10;;;;;;;32.58;28.80;;;;;;;;;;5056072;28;20025;-44
2022/02/03 10:08:36;;;;;;;30.05;21.05;;;;;;;;;;5053521;28;20106;-46
2022/02/03 10:11:18;;;;;;;34.05;22.77;;;;;;;;;;5053295;28;20458;-46
2022/02/03 10:13:54;;;;;;;25.30;19.88;;;;;;;;;;5051429;28;20025;-45
2022/02/03 10:16:20;;;;;;;20.00;17.98;;;;;;;;;;5047792;28;20032;-49
2022/02/03 10:18:46;;;;;;;24.60;14.45;;;;;;;;;;5051720;28;20017;-46
2022/02/03 10:21:16;;;;;;;13.77;12.27;;;;;;;;;;5054464;28;20056;-43
2022/02/03 10:23:52;;;;;;;18.17;13.15;;;;;;;;;;5051361;28;20438;-42
2022/02/03 10:26:17;;;;;;;17.75;13.02;;;;;;;;;;5054662;28;20025;-44
2022/02/03 10:28:54;;;;;;;28.38;14.25;;;;;;;;;;5050555;28;20017;-46
2022/02/03 10:31:23;;;;;;;32.25;18.63;;;;;;;;;;5051736;28;20489;-46
2022/02/03 10:33:52;;;;;;;24.33;12.95;;;;;;;;;;5048119;28;20027;-43
2022/02/03 10:36:35;;;;;;;21.05;13.52;;;;;;;;;;5048666;28;20024;-47
2022/02/03 10:39:26;;;;;;;26.30;13.23;;;;;;;;;;5051932;28;20013;-46
2022/02/03 10:42:39;;;;;;;21.35;16.63;;;;;;;;;;5049518;28;20018;-50
2022/02/03 10:45:11;;;;;;;27.35;17.35;;;;;;;;;;5052258;28;20025;-46
2022/02/03 10:56:09;;;;;;;16.80;15.32;;;;;;;;;;5051328;28;20028;-45
2022/02/03 11:07:00;;;;;;;20.23;14.65;;;;;;;;;;5047561;28;20098;-45
2022/02/03 11:12:15;;;;;;;21.88;9.55;;;;;;;;;;5052100;28;20141;-48
2022/02/03 11:14:42;;;;;;;35.15;9.80;;;;;;;;;;5052108;28;20039;-46
2022/02/03 11:17:08;;;;;;;11.88;9.05;;;;;;;;;;5051532;28;20024;-46
2022/02/03 11:19:35;;;;;;;55.05;14.85;;;;;;;;;;5053576;28;20557;-50
2022/02/03 11:22:06;;;;;;;15.13;10.88;;;;;;;;;;5046275;28;20049;-50
2022/02/03 11:24:34;;;;;;;104.03;81.63;;;;;;;;;;5048056;28;20090;-51
2022/02/03 11:30:14;;;;;;;12.48;10.23;;;;;;;;;;5040682;28;20412;-47
2022/02/03 11:32:53;;;;;;;17.45;9.75;;;;;;;;;;5047946;28;20111;-49
2022/02/03 12:02:56;;;;;;;9.82;5.47;;;;;;;;;;5057214;28;20217;-46
2022/02/03 12:06:12;;;;;;;6.18;3.53;;;;;;;;;;5052174;28;20029;-46
2022/02/03 12:11:51;;;;;;;7.88;6.32;;;;;;;;;;5045309;28;20064;-45
2022/02/03 12:16:28;;;;;;;20.17;6.32;;;;;;;;;;5055576;28;20398;-48
2022/02/03 12:19:21;;;;;;;6.85;5.07;;;;;;;;;;5050030;28;20100;-46
2022/02/03 12:22:04;;;;;;;4.38;3.67;;;;;;;;;;5049081;28;20032;-47
2022/02/03 12:29:28;;;;;;;50.67;13.88;;;;;;;;;;5047138;28;20048;-49
2022/02/03 12:32:05;;;;;;;12.60;6.65;;;;;;;;;;5051957;28;20205;-51
2022/02/03 12:37:37;;;;;;;9.18;4.57;;;;;;;;;;5050678;28;20435;-48
2022/02/03 12:40:04;;;;;;;10.20;4.78;;;;;;;;;;5053187;28;20205;-50
2022/02/03 12:45:31;;;;;;;6.95;4.25;;;;;;;;;;5052212;28;20532;-49
2022/02/03 12:48:00;;;;;;;7.65;2.83;;;;;;;;;;5054355;28;20152;-51
2022/02/03 12:50:25;;;;;;;4.05;3.05;;;;;;;;;;5050017;28;20025;-47
2022/02/03 12:52:51;;;;;;;4.90;3.25;;;;;;;;;;5047798;28;20025;-48
2022/02/03 12:55:27;;;;;;;8.30;3.97;;;;;;;;;;5048991;28;20083;-50
2022/02/03 12:57:53;;;;;;;6.32;3.85;;;;;;;;;;5045935;28;20122;-49
2022/02/03 13:00:32;;;;;;;8.32;4.47;;;;;;;;;;5052517;28;20500;-47
2022/02/03 13:02:59;;;;;;;9.43;2.95;;;;;;;;;;5056173;28;20030;-51
2022/02/03 13:05:27;;;;;;;3.70;2.85;;;;;;;;;;5057586;28;20584;-50
2022/02/03 13:07:54;;;;;;;7.63;2.72;;;;;;;;;;5053894;28;20030;-51
2022/02/03 13:10:20;;;;;;;5.35;2.60;;;;;;;;;;5057044;28;20039;-47
2022/02/03 13:12:54;;;;;;;2.97;1.92;;;;;;;;;;5051793;28;20032;-50
2022/02/03 13:15:49;;;;;;;4.60;2.15;;;;;;;;;;5050479;28;20100;-49
2022/02/03 13:18:25;;;;;;;4.40;2.35;;;;;;;;;;5051226;28;20564;-49
2022/02/03 13:23:26;;;;;;;4.80;2.22;;;;;;;;;;5050268;28;20095;-46
2022/02/03 13:28:50;;;;;;;5.65;3.17;;;;;;;;;;5055169;28;20130;-47
2022/02/03 13:31:24;;;;;;;6.25;4.35;;;;;;;;;;5047576;28;20039;-46
2022/02/03 13:33:56;;;;;;;8.63;4.30;;;;;;;;;;5052703;28;20569;-43
2022/02/03 13:36:28;;;;;;;5.43;3.42;;;;;;;;;;5055625;28;20086;-46
2022/02/03 13:39:03;;;;;;;10.02;5.05;;;;;;;;;;5051599;28;20013;-45
2022/02/03 13:41:29;;;;;;;24.58;3.35;;;;;;;;;;5056072;28;20045;-45
2022/02/03 13:43:55;;;;;;;4.97;2.90;;;;;;;;;;5054536;28;20501;-51
2022/02/03 13:46:28;;;;;;;4.97;2.15;;;;;;;;;;5053640;28;20021;-47
2022/02/03 13:48:53;;;;;;;3.60;2.05;;;;;;;;;;5052254;28;20030;-47
2022/02/03 13:51:23;;;;;;;5.70;1.73;;;;;;;;;;5055945;28;20024;-47
2022/02/03 13:53:59;;;;;;;2.58;1.40;;;;;;;;;;5051074;28;20512;-50
2022/02/03 14:18:47;;;;;;;11.70;3.55;;;;;;;;;;5050299;28;20150;-48
2022/02/03 14:21:06;;;;;;;4.65;3.00;;;;;;;;;;5052630;28;20051;-46
2022/02/03 14:29:00;;;;;;;13.60;4.05;;;;;;;;;;5055890;28;20028;-43
2022/02/03 14:31:26;;;;;;;8.30;7.28;;;;;;;;;;5053668;28;20031;-41
2022/02/03 14:33:52;;;;;;;9.25;4.38;;;;;;;;;;5052302;28;20016;-42
2022/02/03 14:36:22;;;;;;;6.68;4.68;;;;;;;;;;5052284;28;20639;-42
2022/02/03 14:41:30;;;;;;;9.52;5.75;;;;;;;;;;5055616;28;20070;-46
2022/02/03 14:43:58;;;;;;;11.80;3.80;;;;;;;;;;5051622;28;20127;-45
2022/02/03 14:46:23;;;;;;;20.85;4.38;;;;;;;;;;5052222;28;20017;-43
2022/02/03 14:48:49;;;;;;;9.43;5.47;;;;;;;;;;5048845;28;20560;-42
2022/02/03 14:51:19;;;;;;;4.85;4.00;;;;;;;;;;5050382;28;20021;-45
2022/02/03 14:53:52;;;;;;;5.97;4.40;;;;;;;;;;5056786;28;20074;-46
2022/02/03 14:59:01;;;;;;;13.50;4.20;;;;;;;;;;5054331;28;20125;-44
2022/02/03 15:01:33;;;;;;;13.40;6.53;;;;;;;;;;5050721;28;20477;-42
2022/02/03 15:04:00;;;;;;;13.00;5.50;;;;;;;;;;5052787;28;20027;-42
2022/02/03 15:06:28;;;;;;;11.98;7.03;;;;;;;;;;5051877;28;20079;-43
2022/02/03 15:09:49;;;;;;;6.75;5.80;;;;;;;;;;5057395;28;20052;-46
2022/02/03 15:14:16;;;;;;;11.43;6.22;;;;;;;;;;5048670;28;20028;-45
2022/02/03 15:16:42;;;;;;;14.68;9.85;;;;;;;;;;5050246;28;20504;-47
2022/02/03 15:19:07;;;;;;;17.02;9.63;;;;;;;;;;5051508;28;20025;-45
2022/02/03 15:21:33;;;;;;;9.63;7.85;;;;;;;;;;5050808;28;20479;-44
2022/02/03 15:23:58;;;;;;;15.10;8.80;;;;;;;;;;5046423;28;20409;-41
2022/02/03 15:26:23;;;;;;;16.45;12.85;;;;;;;;;;5054093;28;20036;-43
2022/02/03 15:28:49;;;;;;;13.18;11.02;;;;;;;;;;5050257;28;20053;-47
2022/02/03 15:31:15;;;;;;;27.63;9.77;;;;;;;;;;5053149;28;20020;-43
2022/02/03 15:33:46;;;;;;;11.68;9.30;;;;;;;;;;5051017;28;20035;-42
2022/02/03 15:36:13;;;;;;;17.83;9.32;;;;;;;;;;5052712;28;20020;-45
2022/02/03 15:38:45;;;;;;;10.88;6.72;;;;;;;;;;5048230;28;20488;-44
2022/02/03 15:41:19;;;;;;;20.17;6.63;;;;;;;;;;5047210;28;20074;-43
2022/02/03 15:43:45;;;;;;;17.48;11.02;;;;;;;;;;5049275;28;20021;-40
2022/02/03 15:46:12;;;;;;;122.43;91.47;;;;;;;;;;5052151;28;20032;-42
2022/02/03 15:48:45;;;;;;;145.10;129.20;;;;;;;;;;5051805;28;20028;-44
2022/02/03 16:17:32;;;;;;;26.30;23.42;;;;;;;;;;5052632;28;20104;-50
2022/02/03 16:20:09;;;;;;;30.48;25.25;;;;;;;;;;5047390;28;20440;-49
2022/02/03 16:54:46;;;;;;;46.72;35.20;;;;;;;;;;5049400;28;20025;-48
2022/02/03 16:57:15;;;;;;;45.35;40.53;;;;;;;;;;5046017;28;20018;-47
2022/02/03 16:59:52;;;;;;;42.17;37.20;;;;;;;;;;5047661;28;20021;-47
2022/02/03 17:02:17;;;;;;;39.63;32.45;;;;;;;;;;5048013;28;20022;-48
2022/02/03 17:04:43;;;;;;;39.08;34.40;;;;;;;;;;5048242;28;20044;-49
2022/02/03 17:07:08;;;;;;;41.40;34.83;;;;;;;;;;5051218;28;20580;-49
2022/02/03 17:09:33;;;;;;;50.58;44.05;;;;;;;;;;5052863;28;20032;-45
2022/02/03 17:11:59;;;;;;;55.45;39.90;;;;;;;;;;5050816;28;20020;-46
2022/02/03 17:14:28;;;;;;;78.22;53.90;;;;;;;;;;5049020;28;20021;-47
2022/02/03 17:16:53;;;;;;;72.22;53.50;;;;;;;;;;5045983;28;20555;-45
2022/02/03 17:19:21;;;;;;;56.50;50.30;;;;;;;;;;5047970;28;20017;-46
2022/02/03 17:21:46;;;;;;;51.63;44.45;;;;;;;;;;5047615;28;20028;-48
2022/02/03 17:24:11;;;;;;;49.25;35.03;;;;;;;;;;5048823;28;20041;-49
2022/02/03 17:26:49;;;;;;;44.83;40.40;;;;;;;;;;5048559;28;20048;-44
2022/02/03 17:29:28;;;;;;;49.55;38.35;;;;;;;;;;5048206;28;20059;-49
2022/02/03 18:10:09;;;;;;;110.88;75.55;;;;;;;;;;5054688;28;20035;-45
2022/02/03 18:49:48;;;;;;;123.63;92.78;;;;;;;;;;5051373;28;20023;-50
2022/02/03 20:04:41;;;;;;;78.13;66.35;;;;;;;;;;5050128;28;20024;-48
2022/02/03 20:07:16;;;;;;;85.28;69.32;;;;;;;;;;5046589;28;20108;-52
2022/02/03 20:12:22;;;;;;;76.90;64.13;;;;;;;;;;5050471;28;20066;-48
2022/02/03 20:14:49;;;;;;;71.57;64.20;;;;;;;;;;5046639;28;20522;-51
2022/02/03 20:17:19;;;;;;;100.40;82.97;;;;;;;;;;5051144;28;20479;-52
2022/02/03 20:19:44;;;;;;;83.80;72.03;;;;;;;;;;5051853;28;20477;-48
2022/02/03 20:22:09;;;;;;;77.47;68.10;;;;;;;;;;5053253;28;20020;-50
2022/02/03 20:24:35;;;;;;;75.80;67.93;;;;;;;;;;5049032;28;20582;-44
2022/02/03 20:27:01;;;;;;;74.40;66.72;;;;;;;;;;5051870;28;20205;-50
2022/02/03 20:29:26;;;;;;;79.85;67.25;;;;;;;;;;5050536;28;20519;-50
2022/02/03 20:31:51;;;;;;;66.25;55.30;;;;;;;;;;5049124;28;20060;-48
2022/02/03 20:34:17;;;;;;;83.55;68.00;;;;;;;;;;5051428;28;20115;-48
2022/02/03 20:36:42;;;;;;;74.30;66.30;;;;;;;;;;5052309;28;20096;-50
2022/02/03 20:39:07;;;;;;;135.57;121.18;;;;;;;;;;5048484;28;20111;-53
2022/02/03 20:41:33;;;;;;;100.75;90.25;;;;;;;;;;5050782;28;20028;-47
2022/02/03 20:43:58;;;;;;;105.18;78.50;;;;;;;;;;5045456;28;20017;-50
2022/02/03 20:46:24;;;;;;;86.70;77.55;;;;;;;;;;5053451;28;20028;-50
2022/02/03 20:48:50;;;;;;;82.32;72.90;;;;;;;;;;5046750;28;20028;-49
2022/02/03 20:51:16;;;;;;;95.57;78.78;;;;;;;;;;5054184;28;20358;-48
2022/02/03 20:53:42;;;;;;;71.40;61.33;;;;;;;;;;5047115;28;20063;-48
2022/02/03 20:56:09;;;;;;;77.28;65.15;;;;;;;;;;5035332;28;20502;-49
2022/02/03 20:58:34;;;;;;;92.07;65.20;;;;;;;;;;5047945;28;20044;-49
2022/02/03 21:01:07;;;;;;;87.22;64.82;;;;;;;;;;5045342;28;20472;-46
2022/02/03 21:03:40;;;;;;;71.07;63.17;;;;;;;;;;5042235;28;20034;-50
2022/02/03 21:06:09;;;;;;;86.53;75.10;;;;;;;;;;5043882;28;20642;-47
2022/02/03 21:08:36;;;;;;;76.68;60.47;;;;;;;;;;5048224;28;20809;-48
2022/02/03 21:11:02;;;;;;;70.03;58.10;;;;;;;;;;5044364;28;20029;-53
2022/02/03 21:13:28;;;;;;;52.95;47.20;;;;;;;;;;5042729;28;20489;-50
2022/02/03 21:15:54;;;;;;;72.30;53.75;;;;;;;;;;5047441;28;20135;-49
2022/02/03 21:18:20;;;;;;;67.47;51.05;;;;;;;;;;5047661;28;20052;-47
2022/02/03 21:20:47;;;;;;;57.83;51.78;;;;;;;;;;5046668;28;20676;-51
2022/02/03 21:23:12;;;;;;;60.83;50.15;;;;;;;;;;5047204;28;20053;-49
2022/02/03 21:25:44;;;;;;;69.85;54.47;;;;;;;;;;5050983;28;20066;-50
2022/02/03 21:28:14;;;;;;;61.72;53.80;;;;;;;;;;5047677;28;20025;-50
2022/02/03 21:30:40;;;;;;;55.42;47.67;;;;;;;;;;5050912;28;20028;-49
2022/02/03 21:33:12;;;;;;;63.65;53.28;;;;;;;;;;5051927;28;20024;-51
2022/02/03 21:35:41;;;;;;;56.13;46.42;;;;;;;;;;5049326;28;20101;-51
2022/02/03 21:38:06;;;;;;;43.42;37.75;;;;;;;;;;5045986;28;20025;-53
2022/02/03 21:40:32;;;;;;;61.13;43.58;;;;;;;;;;5049567;28;20020;-52
2022/02/03 21:43:00;;;;;;;74.15;58.17;;;;;;;;;;5051679;28;20025;-47
2022/02/03 21:45:27;;;;;;;56.20;49.95;;;;;;;;;;5048936;28;20032;-49
2022/02/03 21:47:52;;;;;;;48.10;43.10;;;;;;;;;;5053079;28;20024;-47
2022/02/03 21:50:18;;;;;;;48.85;43.10;;;;;;;;;;5052755;28;20025;-49
2022/02/03 21:52:48;;;;;;;42.33;36.40;;;;;;;;;;5051117;28;20473;-51
2022/02/03 21:55:13;;;;;;;34.95;30.42;;;;;;;;;;5048484;28;20043;-52
2022/02/03 21:57:42;;;;;;;33.30;29.67;;;;;;;;;;5052225;28;20006;-48
2022/02/03 22:00:08;;;;;;;37.47;25.80;;;;;;;;;;5051892;28;20078;-50
2022/02/03 22:02:34;;;;;;;32.17;28.50;;;;;;;;;;5049727;28;20035;-45
2022/02/03 22:05:01;;;;;;;32.03;27.05;;;;;;;;;;5052988;28;20025;-47
2022/02/03 22:07:26;;;;;;;42.72;35.10;;;;;;;;;;5052736;28;20033;-48
2022/02/03 22:09:51;;;;;;;41.20;30.67;;;;;;;;;;5048210;28;20040;-47
2022/02/03 22:12:17;;;;;;;40.30;36.03;;;;;;;;;;5051936;28;20029;-47
2022/02/03 22:14:42;;;;;;;40.05;26.13;;;;;;;;;;5049666;28;20404;-46
2022/02/03 22:17:08;;;;;;;27.95;20.80;;;;;;;;;;5053080;28;20421;-53
2022/02/03 22:19:34;;;;;;;56.05;45.90;;;;;;;;;;5048639;28;20063;-47
2022/02/03 22:22:15;;;;;;;77.68;65.32;;;;;;;;;;5054575;28;20466;-51
2022/02/03 22:45:47;;;;;;;42.80;36.78;;;;;;;;;;5050346;28;20087;-47
2022/02/03 22:48:33;;;;;;;47.15;37.05;;;;;;;;;;5054028;28;20029;-50
2022/02/03 22:50:59;;;;;;;45.08;40.55;;;;;;;;;;5052272;28;20091;-50
2022/02/03 22:53:25;;;;;;;36.60;32.53;;;;;;;;;;5052145;28;20025;-51
2022/02/03 22:55:50;;;;;;;22.33;20.13;;;;;;;;;;5050909;28;20025;-47
2022/02/03 23:01:01;;;;;;;29.25;21.60;;;;;;;;;;5053448;28;20497;-46
2022/02/03 23:03:30;;;;;;;29.42;25.30;;;;;;;;;;5048085;28;20090;-49
2022/02/03 23:05:56;;;;;;;33.28;29.13;;;;;;;;;;5051577;28;20021;-47
2022/02/03 23:08:29;;;;;;;36.47;29.88;;;;;;;;;;5049243;28;20115;-50
2022/02/03 23:11:09;;;;;;;36.70;32.70;;;;;;;;;;5046893;28;20154;-49
2022/02/03 23:16:19;;;;;;;30.88;27.35;;;;;;;;;;5052329;28;20043;-50
2022/02/03 23:21:29;;;;;;;29.20;25.10;;;;;;;;;;5045852;28;20039;-50
2022/02/03 23:23:55;;;;;;;27.05;23.20;;;;;;;;;;5047409;28;20048;-47
2022/02/03 23:26:23;;;;;;;25.88;19.65;;;;;;;;;;5052222;28;20029;-48
2022/02/03 23:28:50;;;;;;;34.30;23.67;;;;;;;;;;5048199;28;20099;-48
2022/02/03 23:31:16;;;;;;;21.67;19.45;;;;;;;;;;5053098;28;20021;-48
2022/02/03 23:33:41;;;;;;;21.02;18.77;;;;;;;;;;5047308;28;20108;-48
2022/02/03 23:36:06;;;;;;;21.42;19.23;;;;;;;;;;5053674;28;20460;-48
2022/02/03 23:38:59;;;;;;;31.58;19.35;;;;;;;;;;5052813;28;20119;-49
2022/02/03 23:44:32;;;;;;;17.13;13.90;;;;;;;;;;5055896;28;20024;-47
